Time;durP1;ratioP1;P1;durP2;ratioP2;P2;SDS_P1;SDS_P2;PMS_P1;PMS_P2;Temp;Humidity;BMP_temperature;BMP_pressure;BME280_temperature;BME280_humidity;BME280_pressure;Samples;Min_cycle;Max_cycle;Signal;HPM_P1;HPM_P2
2024/01/13 06:49:43;;;;;;;10.90;7.50;;;;;;;-7.12;100.00;98792.70;101898;1291;62692;-61
2024/01/13 06:52:54;;;;;;;11.20;6.90;;;;;;;-6.71;100.00;98793.94;103898;1266;60407;-61
2024/01/13 06:59:32;;;;;;;12.60;7.50;;;;;;;-5.81;100.00;98802.41;103712;1273;143232;-62
2024/01/13 07:01:59;;;;;;;19.10;8.10;;;;;;;-5.57;100.00;98801.42;104372;1269;71132;-63
2024/01/13 07:04:29;;;;;;;14.20;8.80;;;;;;;-5.32;100.00;98797.35;104230;1282;60715;-63
2024/01/13 07:07:40;;;;;;;9.50;6.10;;;;;;;-5.11;100.00;98799.71;104443;1266;59860;-62
2024/01/13 07:10:54;;;;;;;12.20;6.50;;;;;;;-4.92;100.00;98796.58;103796;1284;73216;-67
2024/01/13 07:13:27;;;;;;;9.50;6.10;;;;;;;-4.79;100.00;98793.75;103879;1280;68076;-69
2024/01/13 07:16:00;;;;;;;9.10;7.00;;;;;;;-4.67;100.00;98793.11;103832;1267;72297;-64
2024/01/13 07:27:25;;;;;;;9.50;6.10;;;;;;;-4.32;100.00;98794.80;104471;1270;73718;-67
2024/01/13 07:29:59;;;;;;;9.40;6.10;;;;;;;-4.22;100.00;98793.45;104339;1258;70163;-69
2024/01/13 07:33:13;;;;;;;11.70;6.70;;;;;;;-4.06;100.00;98790.59;104380;1259;73332;-65
2024/01/13 07:39:53;;;;;;;8.40;6.10;;;;;;;-3.82;100.00;98785.15;104561;1275;60284;-67
2024/01/13 07:42:27;;;;;;;8.00;6.00;;;;;;;-3.80;100.00;98784.30;104352;1260;72489;-66
2024/01/13 07:45:28;;;;;;;10.00;6.90;;;;;;;-3.75;100.00;98779.35;104443;1275;69323;-61
2024/01/13 07:56:40;;;;;;;9.60;6.40;;;;;;;-3.79;100.00;98778.13;104491;1257;59866;-61
2024/01/13 07:59:29;;;;;;;9.40;7.00;;;;;;;-3.83;100.00;98781.05;104591;1259;73840;-61
2024/01/13 08:10:03;;;;;;;10.10;6.40;;;;;;;-3.84;100.00;98802.11;104468;1258;60872;-62
2024/01/13 08:12:36;;;;;;;10.90;7.00;;;;;;;-3.79;100.00;98808.98;104927;1259;60327;-62
2024/01/13 08:15:47;;;;;;;10.10;7.00;;;;;;;-3.78;100.00;98810.67;104622;1259;73693;-61
2024/01/13 08:22:40;;;;;;;12.80;6.70;;;;;;;-3.73;100.00;98817.20;104441;1259;72638;-65
2024/01/13 08:25:32;;;;;;;12.00;7.50;;;;;;;-3.69;100.00;98819.26;104427;1270;60351;-66
2024/01/13 08:28:43;;;;;;;14.40;7.00;;;;;;;-3.63;100.00;98825.27;104734;1256;59692;-63
2024/01/13 08:31:10;;;;;;;9.40;6.50;;;;;;;-3.60;100.00;98829.73;105018;1254;73555;-65
2024/01/13 08:34:29;;;;;;;12.20;7.00;;;;;;;-3.55;100.00;98831.95;104304;1276;70446;-64
2024/01/13 08:37:51;;;;;;;10.60;7.80;;;;;;;-3.44;100.00;98828.88;104699;1254;72193;-62
2024/01/13 08:40:24;;;;;;;12.20;7.30;;;;;;;-3.36;100.00;98826.98;104705;1257;61269;-63
2024/01/13 08:43:08;;;;;;;13.40;7.70;;;;;;;-3.33;100.00;98830.76;104657;1258;59800;-62
2024/01/13 08:45:38;;;;;;;9.60;7.40;;;;;;;-3.35;100.00;98832.65;104300;1254;73348;-65
2024/01/13 08:48:31;;;;;;;10.20;7.70;;;;;;;-3.35;100.00;98830.41;104306;1258;70503;-65
2024/01/13 08:50:58;;;;;;;11.50;7.90;;;;;;;-3.32;100.00;98828.71;104446;1258;73011;-62
2024/01/13 08:54:11;;;;;;;13.50;7.60;;;;;;;-3.26;100.00;98831.27;104891;1253;61819;-64
2024/01/13 08:56:38;;;;;;;11.50;7.80;;;;;;;-3.14;100.00;98842.59;104544;1256;60811;-64
2024/01/13 08:59:30;;;;;;;10.60;8.30;;;;;;;-3.10;100.00;98837.10;104378;1259;73829;-65
2024/01/13 09:02:41;;;;;;;11.60;8.10;;;;;;;-3.09;100.00;98836.94;104298;1254;70198;-65
2024/01/13 09:05:52;;;;;;;11.60;7.40;;;;;;;-3.02;100.00;98833.66;104617;1254;72895;-64
2024/01/13 09:08:25;;;;;;;10.30;8.00;;;;;;;-3.01;100.00;98831.95;104445;1266;62605;-64
2024/01/13 09:11:36;;;;;;;13.20;7.90;;;;;;;-3.02;100.00;98835.55;104748;1254;60386;-62
2024/01/13 09:14:16;;;;;;;16.00;8.50;;;;;;;-3.05;100.00;98837.95;104286;1261;72639;-68
2024/01/13 09:16:45;;;;;;;14.00;8.50;;;;;;;-2.96;100.00;98844.46;104452;1259;69113;-65
2024/01/13 09:23:01;;;;;;;14.00;9.30;;;;;;;-2.83;100.00;98854.73;104376;1273;61904;-67
2024/01/13 09:26:12;;;;;;;17.00;10.20;;;;;;;-2.80;100.00;98862.28;104428;1272;60172;-64
2024/01/13 09:28:46;;;;;;;16.80;10.20;;;;;;;-2.92;100.00;98871.72;104447;1258;72827;-64
2024/01/13 09:31:13;;;;;;;12.80;9.00;;;;;;;-2.92;100.00;98875.84;104697;1259;69269;-66
2024/01/13 09:34:31;;;;;;;14.50;9.00;;;;;;;-2.98;100.00;98878.59;104367;1254;72930;-66
2024/01/13 09:37:04;;;;;;;14.60;9.20;;;;;;;-2.94;100.00;98887.84;104631;1254;60613;-65
2024/01/13 09:39:33;;;;;;;13.50;9.10;;;;;;;-2.89;100.00;98890.93;105336;1253;61094;-71
2024/01/13 09:42:44;;;;;;;12.90;8.20;;;;;;;-2.88;100.00;98890.06;104451;1258;72659;-69
2024/01/13 09:45:55;;;;;;;13.80;8.90;;;;;;;-2.87;100.00;98889.90;104433;1270;69921;-68
2024/01/13 09:49:07;;;;;;;11.20;8.30;;;;;;;-2.80;100.00;98891.27;104944;1254;72838;-68
2024/01/13 09:56:38;;;;;;;12.80;8.40;;;;;;;-2.62;100.00;98892.78;104507;1257;60076;-69
2024/01/13 09:59:05;;;;;;;17.50;8.30;;;;;;;-2.53;100.00;98906.67;104370;1257;73359;-71
2024/01/13 10:06:07;;;;;;;11.60;7.90;;;;;;;-2.44;100.00;98905.79;104397;1259;72704;-70
2024/01/13 10:09:30;;;;;;;12.50;8.30;;;;;;;-2.44;100.00;98903.57;104489;1264;60916;-70
2024/01/13 10:16:40;;;;;;;10.20;8.10;;;;;;;-2.42;100.00;98916.61;104897;1253;72998;-67
2024/01/13 10:19:29;;;;;;;10.30;7.60;;;;;;;-2.40;100.00;98923.81;104343;1260;70494;-65
2024/01/13 10:21:57;;;;;;;11.30;7.50;;;;;;;-2.49;100.00;98925.55;104572;1256;72175;-67
2024/01/13 10:24:30;;;;;;;11.50;7.40;;;;;;;-2.54;100.00;98923.31;104413;1257;60767;-66
2024/01/13 10:27:42;;;;;;;13.10;8.10;;;;;;;-2.59;100.00;98922.46;104624;1253;59750;-61
2024/01/13 10:30:54;;;;;;;14.20;7.60;;;;;;;-2.63;100.00;98917.48;105395;1256;73100;-68
2024/01/13 10:33:32;;;;;;;11.50;7.20;;;;;;;-2.55;100.00;98917.83;104953;1257;69885;-64
2024/01/13 10:36:43;;;;;;;11.90;6.60;;;;;;;-2.55;100.00;98921.77;104501;1258;73070;-63
2024/01/13 10:39:29;;;;;;;10.00;6.90;;;;;;;-2.65;100.00;98930.20;104530;1269;60689;-61
2024/01/13 10:42:40;;;;;;;15.00;7.70;;;;;;;-2.64;100.00;98932.42;104634;1255;59988;-63
2024/01/13 10:49:27;;;;;;;11.40;7.20;;;;;;;-2.58;100.00;98926.59;104927;1256;70091;-66
2024/01/13 10:52:40;;;;;;;12.10;6.80;;;;;;;-2.63;100.00;98919.39;104558;1259;71566;-67
2024/01/13 10:59:29;;;;;;;9.30;6.90;;;;;;;-2.56;100.00;98922.13;104654;1257;60284;-67
2024/01/13 11:02:03;;;;;;;11.80;7.40;;;;;;;-2.54;100.00;98921.95;104335;1254;73340;-65
2024/01/13 11:04:31;;;;;;;11.00;7.30;;;;;;;-2.52;100.00;98920.92;104590;1275;69492;-64
2024/01/13 11:11:15;;;;;;;11.70;8.10;;;;;;;-2.49;100.00;98937.56;104328;1253;60976;-67
2024/01/13 11:14:09;;;;;;;12.90;7.30;;;;;;;-2.53;100.00;98938.41;104429;1254;60335;-64
2024/01/13 11:16:37;;;;;;;11.00;7.40;;;;;;;-2.53;100.00;98938.42;104717;1257;72955;-66
2024/01/13 11:19:33;;;;;;;12.40;7.90;;;;;;;-2.60;100.00;98940.66;104330;1260;69210;-67
2024/01/13 11:26:41;;;;;;;10.70;6.90;;;;;;;-2.54;100.00;98940.81;104340;1257;61032;-66
2024/01/13 11:29:31;;;;;;;11.10;7.70;;;;;;;-2.51;100.00;98938.59;104457;1257;60178;-60
2024/01/13 11:36:30;;;;;;;11.10;7.90;;;;;;;-2.52;100.00;98935.33;104718;1256;69896;-60
2024/01/13 11:43:00;;;;;;;11.10;8.10;;;;;;;-2.66;100.00;98931.40;104362;1254;61088;-61
2024/01/13 11:46:11;;;;;;;11.40;7.90;;;;;;;-2.81;100.00;98939.30;104604;1257;60041;-63
2024/01/13 11:48:39;;;;;;;14.70;8.90;;;;;;;-2.88;100.00;98942.55;104690;1258;73142;-62
2024/01/13 11:51:14;;;;;;;12.20;7.80;;;;;;;-2.93;100.00;98947.70;104738;1254;69409;-62
2024/01/13 11:54:29;;;;;;;14.10;8.30;;;;;;;-3.00;100.00;98952.32;104423;1253;73268;-63
2024/01/13 11:57:40;;;;;;;15.00;8.70;;;;;;;-3.11;100.00;98965.52;104506;1254;61054;-63
2024/01/13 12:00:51;;;;;;;10.10;7.50;;;;;;;-3.07;100.00;98977.52;104633;1255;60598;-65
2024/01/13 12:03:25;;;;;;;11.70;7.50;;;;;;;-3.11;100.00;98985.92;104889;1256;74006;-68
2024/01/13 12:06:37;;;;;;;11.80;7.60;;;;;;;-3.25;100.00;98984.02;104681;1259;69302;-63
2024/01/13 12:09:48;;;;;;;11.40;7.30;;;;;;;-3.28;100.00;98987.60;104456;1272;72472;-63
2024/01/13 12:13:08;;;;;;;12.60;8.00;;;;;;;-3.24;100.00;98989.48;104590;1256;62175;-64
2024/01/13 12:15:46;;;;;;;13.30;8.20;;;;;;;-3.35;100.00;98976.27;104649;1257;60543;-64
2024/01/13 12:18:59;;;;;;;14.90;7.80;;;;;;;-3.23;100.00;98994.81;104399;1257;73766;-65
2024/01/13 12:22:11;;;;;;;13.30;8.00;;;;;;;-3.21;100.00;98996.52;104867;1256;69561;-67
2024/01/13 12:25:22;;;;;;;16.00;9.50;;;;;;;-3.19;100.00;99004.07;105318;1256;73021;-69
2024/01/13 12:28:33;;;;;;;9.70;7.70;;;;;;;-3.22;100.00;99011.27;104449;1256;60559;-70
2024/01/13 12:31:44;;;;;;;14.00;8.30;;;;;;;-3.28;100.00;99018.10;104613;1253;60588;-69
2024/01/13 12:34:32;;;;;;;12.70;8.10;;;;;;;-3.30;100.00;99020.16;104511;1258;75509;-70
2024/01/13 12:37:24;;;;;;;10.60;7.60;;;;;;;-3.36;100.00;99022.20;104777;1256;69467;-70
2024/01/13 12:40:35;;;;;;;17.70;9.20;;;;;;;-3.39;100.00;99025.78;104610;1255;72996;-67
2024/01/13 12:43:48;;;;;;;13.60;9.10;;;;;;;-3.43;100.00;99026.11;104608;1257;60812;-66
2024/01/13 12:46:59;;;;;;;11.70;8.10;;;;;;;-3.52;100.00;99033.27;104503;1257;60591;-64
2024/01/13 12:49:29;;;;;;;13.80;8.60;;;;;;;-3.49;100.00;99037.39;105003;1257;73513;-62
2024/01/13 12:52:44;;;;;;;14.80;8.50;;;;;;;-3.45;100.00;99037.77;104563;1259;70175;-63
2024/01/13 12:55:55;;;;;;;11.60;8.20;;;;;;;-3.60;100.00;99049.52;104831;1256;72755;-65
2024/01/13 12:59:06;;;;;;;13.80;9.60;;;;;;;-3.72;100.00;99051.17;105734;1257;61593;-63
2024/01/13 13:01:58;;;;;;;15.30;8.90;;;;;;;-3.70;100.00;99048.79;105210;1258;60683;-63
2024/01/13 13:04:32;;;;;;;15.20;9.20;;;;;;;-3.76;100.00;99053.55;104805;1254;74785;-63
2024/01/13 13:07:52;;;;;;;13.90;9.30;;;;;;;-3.74;100.00;99052.54;104771;1267;70160;-63
2024/01/13 13:10:25;;;;;;;14.80;9.80;;;;;;;-3.77;100.00;99060.74;104747;1254;73127;-63
2024/01/13 13:13:02;;;;;;;13.80;8.70;;;;;;;-3.80;100.00;99059.52;104371;1252;61378;-64
2024/01/13 13:20:21;;;;;;;14.60;9.40;;;;;;;-3.81;100.00;99073.56;104639;1257;73397;-64
2024/01/13 13:22:52;;;;;;;12.00;8.00;;;;;;;-3.81;100.00;99078.02;104691;1251;70184;-65
2024/01/13 13:25:53;;;;;;;14.00;9.40;;;;;;;-3.80;100.00;99078.36;105333;1254;73001;-64
2024/01/13 13:29:07;;;;;;;14.50;10.00;;;;;;;-3.85;100.00;99081.75;104805;1252;61191;-64
2024/01/13 13:36:26;;;;;;;16.70;8.60;;;;;;;-3.80;100.00;99087.10;105210;1251;73957;-61
2024/01/13 13:38:59;;;;;;;14.70;9.10;;;;;;;-3.84;100.00;99094.27;104862;1270;69479;-61
2024/01/13 13:45:35;;;;;;;14.20;8.30;;;;;;;-3.85;100.00;99103.16;104360;1269;60744;-61
2024/01/13 13:48:09;;;;;;;19.80;8.30;;;;;;;-3.99;100.00;99108.04;104612;1254;60597;-61
2024/01/13 13:51:20;;;;;;;15.40;9.60;;;;;;;-4.01;100.00;99112.98;105023;1254;74499;-63
2024/01/13 13:54:30;;;;;;;12.80;8.90;;;;;;;-4.06;100.00;99120.83;104537;1257;69830;-61
2024/01/13 13:57:06;;;;;;;14.20;8.80;;;;;;;-4.08;100.00;99129.19;104446;1257;72838;-60
2024/01/13 14:00:19;;;;;;;13.60;8.00;;;;;;;-4.08;100.00;99134.15;104497;1252;60574;-62
2024/01/13 14:03:30;;;;;;;19.50;9.50;;;;;;;-4.09;100.00;99141.00;105186;1254;61047;-61
2024/01/13 14:10:30;;;;;;;19.40;9.40;;;;;;;-4.00;100.00;99143.98;104558;1255;69477;-61
2024/01/13 14:17:27;;;;;;;15.10;9.20;;;;;;;-4.02;100.00;99144.83;104665;1260;60924;-61
2024/01/13 14:20:28;;;;;;;14.80;9.00;;;;;;;-3.99;100.00;99153.92;104784;1254;60529;-61
2024/01/13 14:22:55;;;;;;;14.60;8.80;;;;;;;-4.04;100.00;99161.92;104367;1259;73533;-62
2024/01/13 14:25:23;;;;;;;14.60;8.90;;;;;;;-4.10;100.00;99171.47;104543;1259;69257;-61
2024/01/13 14:28:28;;;;;;;14.20;9.00;;;;;;;-4.13;100.00;99168.19;105156;1256;73272;-61
2024/01/13 14:31:04;;;;;;;17.00;9.20;;;;;;;-4.20;100.00;99170.02;104431;1260;61034;-62
2024/01/13 14:34:16;;;;;;;14.00;8.50;;;;;;;-4.23;100.00;99167.77;104447;1267;60444;-62
2024/01/13 14:37:14;;;;;;;15.00;8.60;;;;;;;-4.30;100.00;99162.04;104368;1258;72762;-66
2024/01/13 14:40:26;;;;;;;15.30;9.00;;;;;;;-4.30;100.00;99165.80;104898;1255;70491;-70
2024/01/13 14:43:37;;;;;;;12.50;8.60;;;;;;;-4.29;100.00;99167.70;104708;1254;72988;-68
2024/01/13 14:49:40;;;;;;;14.30;9.70;;;;;;;-4.31;100.00;99166.66;104760;1254;59858;-65
2024/01/13 14:57:16;;;;;;;15.00;9.30;;;;;;;-4.27;100.00;99163.27;104546;1254;69889;-65
2024/01/13 15:00:28;;;;;;;17.00;10.40;;;;;;;-4.27;100.00;99160.36;104550;1258;72640;-63
2024/01/13 15:03:03;;;;;;;16.70;9.80;;;;;;;-4.32;100.00;99162.19;105200;1254;62228;-63
2024/01/13 15:05:39;;;;;;;20.00;10.40;;;;;;;-4.33;100.00;99163.23;104624;1254;60463;-63
2024/01/13 15:12:20;;;;;;;15.00;9.80;;;;;;;-4.36;100.00;99161.64;104440;1264;69454;-63
2024/01/13 15:19:20;;;;;;;14.30;9.60;;;;;;;-4.46;100.00;99146.14;104524;1254;60962;-60
2024/01/13 15:22:14;;;;;;;16.60;9.50;;;;;;;-4.42;100.00;99144.99;104776;1254;60987;-60
2024/01/13 15:24:42;;;;;;;17.70;9.80;;;;;;;-4.49;100.00;99141.15;104490;1260;72740;-62
2024/01/13 15:27:16;;;;;;;12.80;8.60;;;;;;;-4.52;100.00;99145.23;105259;1251;70124;-61
2024/01/13 15:30:28;;;;;;;13.00;8.80;;;;;;;-4.51;100.00;99142.52;104453;1270;72786;-62
2024/01/13 15:33:06;;;;;;;16.10;9.60;;;;;;;-4.60;100.00;99143.80;104401;1262;61105;-64
2024/01/13 15:36:17;;;;;;;13.50;8.80;;;;;;;-4.66;100.00;99147.48;105125;1251;61138;-64
2024/01/13 15:39:30;;;;;;;12.10;8.50;;;;;;;-4.64;100.00;99153.84;104536;1251;73588;-64
2024/01/13 15:45:34;;;;;;;14.30;9.00;;;;;;;-4.62;100.00;99155.58;104560;1257;72819;-62
2024/01/13 15:48:32;;;;;;;13.80;8.60;;;;;;;-4.64;100.00;99146.83;104675;1251;60455;-64
2024/01/13 15:55:31;;;;;;;13.40;9.00;;;;;;;-4.61;100.00;99146.69;104532;1256;73983;-61
2024/01/13 15:58:45;;;;;;;13.30;8.20;;;;;;;-4.65;100.00;99148.02;104506;1257;70572;-61
2024/01/13 16:01:19;;;;;;;15.60;8.70;;;;;;;-4.62;100.00;99153.85;104892;1253;71463;-62
2024/01/13 16:04:33;;;;;;;14.00;8.40;;;;;;;-4.65;100.00;99154.16;104485;1253;61155;-61
2024/01/13 16:07:44;;;;;;;14.40;8.50;;;;;;;-4.62;100.00;99157.77;104441;1267;60023;-61
2024/01/13 16:10:11;;;;;;;15.70;8.20;;;;;;;-4.64;100.00;99156.40;104738;1257;73518;-61
2024/01/13 16:16:31;;;;;;;13.10;7.80;;;;;;;-4.77;100.00;99165.33;105219;1253;73282;-63
2024/01/13 16:23:33;;;;;;;12.40;7.60;;;;;;;-4.72;100.00;99175.66;104568;1264;60069;-63
2024/01/13 16:30:32;;;;;;;14.70;8.40;;;;;;;-4.71;100.00;99184.38;104460;1260;69612;-63
2024/01/13 16:33:08;;;;;;;13.40;7.40;;;;;;;-4.72;100.00;99187.80;104477;1263;72603;-64
2024/01/13 16:36:19;;;;;;;12.90;8.40;;;;;;;-4.72;100.00;99194.98;104562;1254;61407;-63
2024/01/13 16:38:47;;;;;;;11.70;8.00;;;;;;;-4.69;100.00;99199.27;104398;1254;60455;-63
2024/01/13 16:41:20;;;;;;;13.80;8.70;;;;;;;-4.67;100.00;99203.75;104854;1256;74093;-63
2024/01/13 16:44:31;;;;;;;13.10;8.30;;;;;;;-4.67;100.00;99199.98;104823;1251;69388;-63
2024/01/13 16:51:30;;;;;;;13.40;8.70;;;;;;;-4.74;100.00;99191.19;104349;1275;60546;-64
2024/01/13 16:54:35;;;;;;;14.00;8.80;;;;;;;-4.72;100.00;99180.79;104890;1256;60457;-64
2024/01/13 16:57:08;;;;;;;16.00;8.40;;;;;;;-4.70;100.00;99180.11;104383;1273;73418;-63
2024/01/13 16:59:36;;;;;;;15.30;8.00;;;;;;;-4.68;100.00;99175.69;105107;1259;68585;-62
2024/01/13 17:07:07;;;;;;;16.20;9.40;;;;;;;-4.71;100.00;99171.89;104999;1254;60972;-63
2024/01/13 17:09:36;;;;;;;16.60;9.40;;;;;;;-4.73;100.00;99169.31;104631;1259;60306;-63
2024/01/13 17:12:37;;;;;;;22.00;9.90;;;;;;;-4.73;100.00;99168.46;105473;1256;73614;-63
2024/01/13 17:15:23;;;;;;;16.70;9.20;;;;;;;-4.71;100.00;99173.79;104890;1253;70359;-65
2024/01/13 17:18:37;;;;;;;15.10;9.00;;;;;;;-4.66;100.00;99177.58;104414;1251;72816;-62
2024/01/13 17:21:11;;;;;;;17.20;10.40;;;;;;;-4.62;100.00;99180.20;104636;1267;60182;-66
2024/01/13 17:23:45;;;;;;;17.10;9.50;;;;;;;-4.64;100.00;99180.69;105024;1250;60513;-65
2024/01/13 17:26:38;;;;;;;18.40;9.70;;;;;;;-4.66;100.00;99177.94;104700;1256;73474;-63
2024/01/13 17:29:06;;;;;;;18.70;10.40;;;;;;;-4.71;100.00;99174.80;104363;1257;69612;-64
2024/01/13 17:32:18;;;;;;;15.20;9.80;;;;;;;-4.69;100.00;99177.05;104446;1254;71680;-63
2024/01/13 17:35:42;;;;;;;16.50;10.10;;;;;;;-4.63;100.00;99188.05;104468;1253;61126;-63
2024/01/13 17:42:28;;;;;;;16.60;9.90;;;;;;;-4.67;100.00;99176.04;104849;1258;74117;-63
2024/01/13 17:45:15;;;;;;;17.70;10.30;;;;;;;-4.64;100.00;99186.16;104448;1253;69862;-63
2024/01/13 17:48:27;;;;;;;17.40;10.30;;;;;;;-4.68;100.00;99187.15;104596;1254;73213;-64
2024/01/13 17:51:39;;;;;;;14.50;9.50;;;;;;;-4.73;100.00;99191.02;104630;1254;61088;-65
2024/01/13 17:54:37;;;;;;;18.40;10.70;;;;;;;-4.70;100.00;99195.00;104548;1267;60556;-65
2024/01/13 17:57:11;;;;;;;15.20;9.40;;;;;;;-4.70;100.00;99193.63;104810;1250;73898;-63
2024/01/13 17:59:38;;;;;;;16.90;10.80;;;;;;;-4.68;100.00;99189.37;104952;1251;70753;-63
2024/01/13 18:02:42;;;;;;;15.90;9.60;;;;;;;-4.67;100.00;99187.33;104469;1267;72495;-63
2024/01/13 18:05:55;;;;;;;13.30;8.50;;;;;;;-4.70;100.00;99170.54;105181;1252;60514;-62
2024/01/13 18:09:05;;;;;;;14.70;8.50;;;;;;;-4.62;100.00;99176.45;105056;1253;60549;-63
2024/01/13 18:11:39;;;;;;;16.90;10.00;;;;;;;-4.58;100.00;99180.08;104415;1267;74424;-62
2024/01/13 18:14:07;;;;;;;15.50;9.30;;;;;;;-4.57;100.00;99180.77;105407;1255;69792;-62
2024/01/13 18:23:41;;;;;;;18.50;10.20;;;;;;;-4.74;100.00;99171.34;104697;1254;60641;-62
2024/01/13 18:30:35;;;;;;;15.20;8.90;;;;;;;-4.74;100.00;99151.17;104876;1265;69543;-62
2024/01/13 18:37:38;;;;;;;16.50;9.10;;;;;;;-4.71;100.00;99153.60;104419;1270;61454;-62
2024/01/13 18:40:29;;;;;;;18.40;9.70;;;;;;;-4.65;100.00;99146.65;104859;1254;60443;-62
2024/01/13 18:43:41;;;;;;;15.00;9.80;;;;;;;-4.63;100.00;99137.61;104891;1253;74483;-62
2024/01/13 18:55:37;;;;;;;16.90;10.90;;;;;;;-4.63;100.00;99143.23;104339;1251;62636;-63
2024/01/13 18:58:04;;;;;;;19.00;10.60;;;;;;;-4.63;100.00;99138.45;104177;1257;308998;-63
2024/01/13 19:01:50;;;;;;;19.70;12.30;;;;;;;-5.03;100.00;99134.92;101387;1289;600880;-63
2024/01/13 19:05:04;;;;;;;21.10;12.10;;;;;;;-4.81;100.00;99128.02;103732;1266;59369;-63
2024/01/13 19:12:39;;;;;;;19.80;11.50;;;;;;;-4.97;100.00;99122.19;104229;1264;73848;-63
2024/01/13 19:15:08;;;;;;;18.40;10.60;;;;;;;-5.00;100.00;99114.46;100040;1269;5660606;-64
2024/01/13 19:17:36;;;;;;;18.10;10.60;;;;;;;-5.20;100.00;99097.15;104037;1276;61997;-63
2024/01/13 19:20:50;;;;;;;17.30;11.10;;;;;;;-5.11;100.00;99110.08;103793;1279;59369;-63
2024/01/13 19:31:23;;;;;;;17.10;10.40;;;;;;;-5.16;100.00;99109.66;104280;1264;72512;-63
2024/01/13 19:34:37;;;;;;;16.80;11.70;;;;;;;-5.03;100.00;99108.95;104229;1263;60047;-63
2024/01/13 19:37:50;;;;;;;19.40;11.90;;;;;;;-4.99;100.00;99112.09;104369;1260;59987;-63
2024/01/13 19:41:05;;;;;;;22.30;11.30;;;;;;;-5.04;100.00;99109.46;104590;1256;73530;-63
2024/01/13 19:44:18;;;;;;;20.50;10.90;;;;;;;-5.09;100.00;99105.98;104513;1255;69270;-62
2024/01/13 19:47:29;;;;;;;17.30;10.60;;;;;;;-5.04;100.00;99108.09;104931;1257;72485;-64
2024/01/13 19:50:42;;;;;;;20.10;12.00;;;;;;;-4.93;100.00;99106.50;104636;1256;60318;-64
2024/01/13 19:53:54;;;;;;;18.90;12.40;;;;;;;-5.04;100.00;99107.23;104635;1256;59724;-63
2024/01/13 19:57:06;;;;;;;19.10;12.40;;;;;;;-5.11;100.00;99105.45;104755;1251;73653;-63
2024/01/13 19:59:37;;;;;;;18.10;11.10;;;;;;;-5.15;100.00;99104.20;104783;1254;69605;-63
2024/01/13 20:02:52;;;;;;;18.20;12.10;;;;;;;-5.13;100.00;99096.38;104576;1256;73882;-60
2024/01/13 20:10:24;;;;;;;21.30;12.20;;;;;;;-5.13;100.00;99103.38;104888;1255;59634;-63
2024/01/13 20:17:26;;;;;;;20.40;12.00;;;;;;;-5.10;100.00;99102.23;104542;1272;69749;-60
2024/01/13 20:24:28;;;;;;;22.00;13.50;;;;;;;-5.22;100.00;99089.27;104503;1256;60780;-61
2024/01/13 20:27:41;;;;;;;19.80;12.00;;;;;;;-5.29;100.00;99091.05;105316;1250;60222;-62
2024/01/13 20:30:55;;;;;;;22.10;12.00;;;;;;;-5.23;100.00;99081.21;105008;1257;72927;-61
2024/01/13 20:34:07;;;;;;;20.50;11.90;;;;;;;-5.08;100.00;99086.52;104619;1256;69569;-63
2024/01/13 20:37:19;;;;;;;20.60;12.90;;;;;;;-5.03;100.00;99084.52;104413;1254;73601;-62
2024/01/13 20:40:31;;;;;;;17.50;11.30;;;;;;;-5.04;100.00;99082.96;104469;1254;60949;-63
2024/01/13 20:43:45;;;;;;;25.60;12.10;;;;;;;-5.06;100.00;99074.73;104801;1256;60156;-61
2024/01/13 20:46:57;;;;;;;23.60;13.00;;;;;;;-4.90;100.00;99070.98;104640;1256;72928;-63
2024/01/13 20:50:09;;;;;;;20.90;12.60;;;;;;;-4.91;100.00;99074.55;104823;1258;69738;-63
2024/01/13 20:53:24;;;;;;;21.90;12.70;;;;;;;-5.01;100.00;99072.91;104494;1259;72595;-63
2024/01/13 20:56:41;;;;;;;22.10;12.40;;;;;;;-5.05;100.00;99068.95;104569;1258;59785;-62
2024/01/13 20:59:09;;;;;;;24.10;12.80;;;;;;;-4.85;100.00;99078.39;104522;1259;59458;-63
2024/01/13 21:02:25;;;;;;;18.70;12.80;;;;;;;-4.73;100.00;99077.81;105301;1256;73102;-62
2024/01/13 21:05:40;;;;;;;26.60;13.60;;;;;;;-4.79;100.00;99078.77;104515;1267;70564;-61
2024/01/13 21:08:37;;;;;;;23.30;12.70;;;;;;;-4.88;100.00;99075.95;104627;1256;71524;-62
2024/01/13 21:11:51;;;;;;;22.90;13.40;;;;;;;-4.86;100.00;99075.81;104508;1259;61939;-61
2024/01/13 21:15:05;;;;;;;21.70;12.50;;;;;;;-4.72;100.00;99076.45;104625;1256;59896;-62
2024/01/13 21:18:17;;;;;;;22.20;13.40;;;;;;;-4.74;100.00;99075.58;104341;1257;72084;-60
2024/01/13 21:20:53;;;;;;;27.90;15.60;;;;;;;-4.76;100.00;99076.08;104722;1257;69280;-60
2024/01/13 21:24:08;;;;;;;22.20;14.60;;;;;;;-4.79;100.00;99076.04;104437;1257;73315;-67
2024/01/13 21:27:23;;;;;;;21.70;13.10;;;;;;;-4.79;100.00;99071.94;104474;1256;61352;-62
2024/01/13 21:34:34;;;;;;;26.10;14.90;;;;;;;-4.73;100.00;99060.73;104666;1255;73036;-63
2024/01/13 21:37:47;;;;;;;22.00;13.70;;;;;;;-4.75;100.00;99056.95;104320;1257;68204;-62
2024/01/13 21:40:52;;;;;;;18.40;12.70;;;;;;;-4.69;100.00;99048.26;104493;1259;72889;-62
2024/01/13 21:47:38;;;;;;;23.40;13.90;;;;;;;-4.64;100.00;99047.29;104357;1260;59779;-63
2024/01/13 21:50:37;;;;;;;23.50;12.50;;;;;;;-4.70;100.00;99051.00;104831;1257;72814;-63
2024/01/13 21:53:55;;;;;;;20.50;13.30;;;;;;;-4.65;100.00;99047.61;104545;1256;69726;-62
2024/01/13 21:57:13;;;;;;;21.70;13.00;;;;;;;-4.58;100.00;99041.85;104470;1266;72572;-61
2024/01/13 22:00:25;;;;;;;21.80;13.50;;;;;;;-4.58;100.00;99029.02;104665;1258;60228;-62
2024/01/13 22:03:27;;;;;;;18.50;11.90;;;;;;;-4.56;100.00;99032.64;104870;1256;59680;-61
2024/01/13 22:06:40;;;;;;;17.70;12.10;;;;;;;-4.52;100.00;99028.73;104808;1256;72769;-62
2024/01/13 22:09:33;;;;;;;25.20;13.80;;;;;;;-4.41;100.00;99022.83;104584;1262;69166;-62
2024/01/13 22:12:47;;;;;;;23.70;14.50;;;;;;;-4.45;100.00;99018.88;104438;1261;71398;-62
2024/01/13 22:15:59;;;;;;;22.80;13.60;;;;;;;-4.49;100.00;99008.58;104526;1253;59692;-65
2024/01/13 22:19:14;;;;;;;24.20;12.80;;;;;;;-4.48;100.00;99001.40;104737;1257;60653;-65
2024/01/13 22:22:30;;;;;;;24.30;14.80;;;;;;;-4.40;100.00;98995.30;104760;1251;73796;-65
2024/01/13 22:25:42;;;;;;;30.10;15.50;;;;;;;-4.43;100.00;98989.78;104536;1251;69940;-65
2024/01/13 22:28:39;;;;;;;26.00;14.60;;;;;;;-4.45;100.00;98984.84;104545;1256;73355;-66
2024/01/13 22:35:40;;;;;;;25.90;13.70;;;;;;;-4.37;100.00;98982.31;104733;1251;59829;-64
2024/01/13 22:41:56;;;;;;;30.10;14.30;;;;;;;-4.38;100.00;98979.06;104367;1261;69386;-64
2024/01/13 22:45:09;;;;;;;23.60;13.20;;;;;;;-4.38;100.00;98986.41;104317;1268;71756;-64
2024/01/13 22:48:03;;;;;;;21.70;13.00;;;;;;;-4.32;100.00;98986.63;104980;1260;61449;-64
2024/01/13 22:51:18;;;;;;;23.80;13.30;;;;;;;-4.26;100.00;98987.70;104793;1258;59686;-64
2024/01/13 22:54:27;;;;;;;23.60;14.10;;;;;;;-4.36;100.00;98973.77;104796;1256;73280;-65
2024/01/13 22:57:40;;;;;;;24.90;13.70;;;;;;;-4.31;100.00;98979.44;104471;1272;69524;-64
2024/01/13 23:00:39;;;;;;;23.20;13.70;;;;;;;-4.25;100.00;98973.49;104634;1252;72446;-64
2024/01/13 23:03:52;;;;;;;23.50;13.40;;;;;;;-4.21;100.00;98969.58;104700;1256;59795;-65
2024/01/13 23:07:04;;;;;;;23.00;14.00;;;;;;;-4.23;100.00;98971.27;104309;1265;59794;-65
2024/01/13 23:09:35;;;;;;;22.90;12.70;;;;;;;-4.27;100.00;98969.20;105080;1256;72814;-65
2024/01/13 23:12:44;;;;;;;23.40;12.80;;;;;;;-4.26;100.00;98967.33;104549;1251;69028;-65
2024/01/13 23:15:57;;;;;;;21.70;13.00;;;;;;;-4.15;100.00;98961.05;104351;1273;72538;-65
2024/01/13 23:27:36;;;;;;;21.30;11.90;;;;;;;-4.10;100.00;98938.83;104575;1256;71760;-65
2024/01/13 23:30:06;;;;;;;20.40;12.30;;;;;;;-4.07;100.00;98939.34;104606;1266;68720;-64
2024/01/13 23:33:18;;;;;;;19.30;12.40;;;;;;;-4.15;100.00;98935.54;104735;1259;71304;-65
2024/01/13 23:35:52;;;;;;;18.60;10.50;;;;;;;-4.26;100.00;98940.27;104562;1256;60879;-64
2024/01/13 23:39:05;;;;;;;18.20;11.60;;;;;;;-4.19;100.00;98934.33;104352;1267;59732;-65
2024/01/13 23:42:07;;;;;;;23.30;12.70;;;;;;;-4.11;100.00;98929.59;104608;1272;72177;-64
2024/01/13 23:49:32;;;;;;;18.70;10.30;;;;;;;-4.17;100.00;98906.80;104732;1253;74040;-67